Caribbean Express — ZDPG9 — position and weather

sailwx.info

Track history (hours):
 
Tides and Currents Weather Stations Pressure Air Temp Water Temp Dewpoint Dewpoint Depression Visibility Wind Speed Wind Dir Waves Ship Positions

Caribbean Express

Last reported at 2018-Jun-14 21:16 UTC. Time now 2018-Jun-23 10:15 UTC.
Position N 21°49' W 091°05'.
Warning: this ship's position is 8 days out of date.

Length 182 m; draft 9.4 m.

Type: Cargo ship. MMSI: 236671000.

Date/timePositionNaut miles runAvg speedWind from/ knotsBaromVisibWave heightAir tempDewpointWater temp
2018-Jun-14 21:16N 21°49' W 091°05'413.7
2018-Jun-14 21:00N 21°48' W 091°08'714.3
2018-Jun-14 20:30N 21°47' W 091°16'28812.6
2018-Jun-13 21:38N 19°17' W 095°38'111.3
2018-Jun-13 21:30N 19°16' W 095°40'611.6
2018-Jun-13 21:00N 19°13' W 095°45'713.5
2018-Jun-13 20:30N 19°12' W 095°52'713.9
2018-Jun-13 20:00N 19°12' W 095°59'511.1
2018-Jun-13 19:30N 19°12' W 096°05'3 6.2
2018-Jun-13 18:58N 19°13' W 096°08'0 0.1
2018-Jun-13 18:28N 19°13' W 096°08'0 0.0
2018-Jun-13 17:58N 19°13' W 096°08'0 0.0
2018-Jun-13 17:28N 19°13' W 096°08'0 0.0
2018-Jun-13 16:58N 19°13' W 096°08'0 0.0
2018-Jun-13 16:28N 19°13' W 096°08'0 0.0
2018-Jun-13 15:58N 19°13' W 096°08'0 0.0
2018-Jun-13 15:28N 19°13' W 096°08'0 0.0
2018-Jun-13 14:58N 19°13' W 096°08'0 0.0
2018-Jun-13 14:28N 19°13' W 096°08'0 0.0
2018-Jun-13 13:58N 19°13' W 096°08'0 0.0
2018-Jun-13 13:25N 19°13' W 096°08'0 0.0
2018-Jun-13 12:58N 19°13' W 096°08'0 0.0
2018-Jun-13 12:25N 19°13' W 096°08'0 0.0
2018-Jun-13 11:58N 19°13' W 096°08'0 0.0
2018-Jun-13 11:28N 19°13' W 096°08'0 0.0
2018-Jun-13 10:58N 19°13' W 096°08'0 0.0
2018-Jun-13 10:25N 19°13' W 096°08'0 0.0
2018-Jun-13 09:58N 19°13' W 096°08'0 0.0
2018-Jun-13 09:28N 19°13' W 096°08'0 0.0
2018-Jun-13 08:58N 19°13' W 096°08'0 0.0
2018-Jun-13 08:28N 19°13' W 096°08'0 0.0
2018-Jun-13 07:58N 19°13' W 096°08'0 0.0
2018-Jun-13 07:28N 19°13' W 096°08'0 0.0
2018-Jun-13 06:58N 19°13' W 096°08'0 0.0
2018-Jun-13 06:28N 19°13' W 096°08'0 0.0
2018-Jun-13 06:01N 19°13' W 096°08'0 0.0
2018-Jun-13 05:29N 19°13' W 096°08'0 0.0
2018-Jun-13 05:00N 19°13' W 096°08'0 0.0
2018-Jun-13 04:30N 19°13' W 096°08'0 0.0
2018-Jun-13 04:00N 19°13' W 096°08'0 0.0
2018-Jun-13 03:30N 19°13' W 096°08'0 0.0
2018-Jun-13 03:00N 19°13' W 096°08'0 0.0
2018-Jun-13 02:30N 19°13' W 096°08'0 0.0
2018-Jun-13 02:00N 19°13' W 096°08'0 0.0
2018-Jun-13 01:30N 19°13' W 096°08'1 2.0
2018-Jun-13 01:00N 19°12' W 096°07'4 7.5
2018-Jun-13 00:30N 19°12' W 096°03'4 7.2
2018-Jun-13 00:00N 19°14' W 096°00'3 7.0
2018-Jun-12 23:30N 19°17' W 096°02'0 0.7
2018-Jun-12 23:00N 19°17' W 096°02'0 0.5
2018-Jun-12 22:30N 19°17' W 096°02'2 4.0
2018-Jun-12 21:59N 19°18' W 096°03'1 2.2
2018-Jun-12 21:30N 19°19' W 096°04'0 0.6
2018-Jun-12 21:00N 19°19' W 096°04'0 0.5
2018-Jun-12 20:30N 19°19' W 096°04'1 1.5
2018-Jun-12 20:00N 19°19' W 096°04'1 1.8
2018-Jun-12 19:30N 19°19' W 096°03'0 0.5
2018-Jun-12 19:00N 19°19' W 096°03'0 0.5
2018-Jun-12 18:30N 19°19' W 096°03'0 0.5
2018-Jun-12 18:00N 19°19' W 096°03'0 0.9
2018-Jun-12 17:30N 19°19' W 096°04'1 1.1
2018-Jun-12 16:59N 19°19' W 096°04'2 4.3
2018-Jun-12 16:30N 19°19' W 096°01'4 8.3
2018-Jun-12 15:58N 19°24' W 096°01'4 8.8
2018-Jun-12 15:30N 19°28' W 096°00'5 9.6
2018-Jun-12 15:00N 19°32' W 096°01'612.7
2018-Jun-12 14:30N 19°38' W 096°04'612.8
2018-Jun-12 14:00N 19°44' W 096°07'  
2018-Jun-09 11:18N 21°48' W 090°53'3115.6
2018-Jun-09 09:20N 21°41' W 090°21'1115.8
2018-Jun-09 08:38N 21°38' W 090°09'315.8
2018-Jun-09 08:28N 21°37' W 090°07'715.9
2018-Jun-09 08:00N 21°35' W 089°59'815.9
2018-Jun-09 07:30N 21°32' W 089°51'815.5
2018-Jun-09 07:00N 21°29' W 089°43'611.3
2018-Jun-09 06:30N 21°24' W 089°41'3 5.8
2018-Jun-09 05:58N 21°21' W 089°41'0 0.0
2018-Jun-09 05:28N 21°21' W 089°41'0 0.0
2018-Jun-09 04:58N 21°21' W 089°41'0 0.0
2018-Jun-09 04:28N 21°21' W 089°41'0 0.0
2018-Jun-09 03:58N 21°21' W 089°41'0 0.0
2018-Jun-09 03:28N 21°21' W 089°41'0 0.0
2018-Jun-09 02:58N 21°21' W 089°41'0 0.0
2018-Jun-09 02:28N 21°21' W 089°41'0 0.0
2018-Jun-09 01:58N 21°21' W 089°41'0 0.0
2018-Jun-09 01:28N 21°21' W 089°41'0 0.0
2018-Jun-09 00:58N 21°21' W 089°41'0 0.0
2018-Jun-09 00:28N 21°21' W 089°41'0 0.0
2018-Jun-08 23:58N 21°21' W 089°41'0 0.0
2018-Jun-08 23:28N 21°21' W 089°41'0 0.0
2018-Jun-08 22:58N 21°21' W 089°41'0 0.0
2018-Jun-08 22:28N 21°21' W 089°41'0 0.0
2018-Jun-08 21:58N 21°21' W 089°41'0 0.0
2018-Jun-08 21:28N 21°21' W 089°41'0 0.0
2018-Jun-08 20:55N 21°21' W 089°41'0 0.0
2018-Jun-08 20:28N 21°21' W 089°41'0 0.0
2018-Jun-08 19:58N 21°21' W 089°41'0 0.0
2018-Jun-08 19:28N 21°21' W 089°41'0 0.0
2018-Jun-08 18:58N 21°21' W 089°41'0 0.0
2018-Jun-08 18:28N 21°21' W 089°41'0 0.0
2018-Jun-08 17:58N 21°21' W 089°41'0 0.0
2018-Jun-08 17:28N 21°21' W 089°41'0 0.0
2018-Jun-08 16:58N 21°21' W 089°41'0 0.0
2018-Jun-08 16:28N 21°21' W 089°41'0 0.0
2018-Jun-08 15:58N 21°21' W 089°41'0 0.0
2018-Jun-08 15:28N 21°21' W 089°41'0 0.0
2018-Jun-08 14:58N 21°21' W 089°41'0 0.0
2018-Jun-08 14:25N 21°21' W 089°41'0 0.0
2018-Jun-08 13:58N 21°21' W 089°41'0 0.0
2018-Jun-08 13:28N 21°21' W 089°41'0 0.0
2018-Jun-08 12:58N 21°21' W 089°41'0 0.0
2018-Jun-08 12:28N 21°21' W 089°41'0 0.0
2018-Jun-08 11:58N 21°21' W 089°41'0 0.0
2018-Jun-08 11:28N 21°21' W 089°41'0 0.0
2018-Jun-08 10:58N 21°21' W 089°41'0 0.0
2018-Jun-08 10:28N 21°21' W 089°41'0 0.0
2018-Jun-08 09:58N 21°21' W 089°41'0 0.0
2018-Jun-08 09:28N 21°21' W 089°41'0 0.0
2018-Jun-08 08:58N 21°21' W 089°41'0 0.0
2018-Jun-08 08:28N 21°21' W 089°41'0 0.0
2018-Jun-08 07:58N 21°21' W 089°41'0 0.0
2018-Jun-08 07:28N 21°21' W 089°41'0 0.0
2018-Jun-08 06:58N 21°21' W 089°41'0 0.0
2018-Jun-08 06:28N 21°21' W 089°41'0 0.0
2018-Jun-08 05:58N 21°21' W 089°41'0 0.0
2018-Jun-08 05:28N 21°21' W 089°41'0 0.0
2018-Jun-08 04:58N 21°21' W 089°41'0 0.0
2018-Jun-08 04:28N 21°21' W 089°41'0 0.0
2018-Jun-08 03:58N 21°21' W 089°41'0 0.8
2018-Jun-08 03:30N 21°21' W 089°41'510.1
2018-Jun-08 03:00N 21°26' W 089°41'3 5.8
2018-Jun-08 02:30N 21°29' W 089°41'4 8.3
2018-Jun-08 02:00N 21°33' W 089°41'4 8.3
2018-Jun-08 01:31N 21°37' W 089°41'4 8.4
2018-Jun-08 01:00N 21°41' W 089°41'5 9.7
2018-Jun-08 00:30N 21°46' W 089°41'510.5
2018-Jun-08 00:01N 21°51' W 089°40'510.3
2018-Jun-07 23:30N 21°57' W 089°40'510.5
2018-Jun-07 23:00N 22°02' W 089°40'510.6
2018-Jun-07 22:31N 22°07' W 089°40'4 8.6
2018-Jun-07 22:01N 22°10' W 089°38'510.8
2018-Jun-07 21:30N 22°12' W 089°32'510.9
2018-Jun-07 21:01N 22°14' W 089°26'510.8
2018-Jun-07 20:30N 22°15' W 089°21'510.9
2018-Jun-07 20:00N 22°16' W 089°15'510.9
2018-Jun-07 19:30N 22°18' W 089°09'510.8
2018-Jun-07 19:00N 22°19' W 089°04'510.7
2018-Jun-07 18:30N 22°21' W 088°58'3510.7
2018-Jun-07 15:12N 22°30' W 088°21'310.8
2018-Jun-07 14:55N 22°30' W 088°18'511.6
2018-Jun-07 14:30N 22°32' W 088°13'712.3
2018-Jun-07 13:54N 22°34' W 088°05'  
Track history (hours):
 
Tides and Currents Weather Stations Pressure Air Temp Water Temp Dewpoint Dewpoint Depression Visibility Wind Speed Wind Dir Waves Ship Positions

Caribbean Express

Last reported at 2018-Jun-14 21:16 UTC. Time now 2018-Jun-23 10:15 UTC.
Position N 21°49' W 091°05'.
Warning: this ship's position is 8 days out of date.

Length 182 m; draft 9.4 m.

Type: Cargo ship. MMSI: 236671000.

Date/timePositionNaut miles runAvg speedWind from/ knotsBaromVisibWave heightAir tempDewpointWater temp
2018-Jun-14 21:16N 21°49' W 091°05'413.7
2018-Jun-14 21:00N 21°48' W 091°08'714.3
2018-Jun-14 20:30N 21°47' W 091°16'28812.6
2018-Jun-13 21:38N 19°17' W 095°38'111.3
2018-Jun-13 21:30N 19°16' W 095°40'611.6
2018-Jun-13 21:00N 19°13' W 095°45'713.5
2018-Jun-13 20:30N 19°12' W 095°52'713.9
2018-Jun-13 20:00N 19°12' W 095°59'511.1
2018-Jun-13 19:30N 19°12' W 096°05'3 6.2
2018-Jun-13 18:58N 19°13' W 096°08'0 0.1
2018-Jun-13 18:28N 19°13' W 096°08'0 0.0
2018-Jun-13 17:58N 19°13' W 096°08'0 0.0
2018-Jun-13 17:28N 19°13' W 096°08'0 0.0
2018-Jun-13 16:58N 19°13' W 096°08'0 0.0
2018-Jun-13 16:28N 19°13' W 096°08'0 0.0
2018-Jun-13 15:58N 19°13' W 096°08'0 0.0
2018-Jun-13 15:28N 19°13' W 096°08'0 0.0
2018-Jun-13 14:58N 19°13' W 096°08'0 0.0
2018-Jun-13 14:28N 19°13' W 096°08'0 0.0
2018-Jun-13 13:58N 19°13' W 096°08'0 0.0
2018-Jun-13 13:25N 19°13' W 096°08'0 0.0
2018-Jun-13 12:58N 19°13' W 096°08'0 0.0
2018-Jun-13 12:25N 19°13' W 096°08'0 0.0
2018-Jun-13 11:58N 19°13' W 096°08'0 0.0
2018-Jun-13 11:28N 19°13' W 096°08'0 0.0
2018-Jun-13 10:58N 19°13' W 096°08'0 0.0
2018-Jun-13 10:25N 19°13' W 096°08'0 0.0
2018-Jun-13 09:58N 19°13' W 096°08'0 0.0
2018-Jun-13 09:28N 19°13' W 096°08'0 0.0
2018-Jun-13 08:58N 19°13' W 096°08'0 0.0
2018-Jun-13 08:28N 19°13' W 096°08'0 0.0
2018-Jun-13 07:58N 19°13' W 096°08'0 0.0
2018-Jun-13 07:28N 19°13' W 096°08'0 0.0
2018-Jun-13 06:58N 19°13' W 096°08'0 0.0
2018-Jun-13 06:28N 19°13' W 096°08'0 0.0
2018-Jun-13 06:01N 19°13' W 096°08'0 0.0
2018-Jun-13 05:29N 19°13' W 096°08'0 0.0
2018-Jun-13 05:00N 19°13' W 096°08'0 0.0
2018-Jun-13 04:30N 19°13' W 096°08'0 0.0
2018-Jun-13 04:00N 19°13' W 096°08'0 0.0
2018-Jun-13 03:30N 19°13' W 096°08'0 0.0
2018-Jun-13 03:00N 19°13' W 096°08'0 0.0
2018-Jun-13 02:30N 19°13' W 096°08'0 0.0
2018-Jun-13 02:00N 19°13' W 096°08'0 0.0
2018-Jun-13 01:30N 19°13' W 096°08'1 2.0
2018-Jun-13 01:00N 19°12' W 096°07'4 7.5
2018-Jun-13 00:30N 19°12' W 096°03'4 7.2
2018-Jun-13 00:00N 19°14' W 096°00'3 7.0
2018-Jun-12 23:30N 19°17' W 096°02'0 0.7
2018-Jun-12 23:00N 19°17' W 096°02'0 0.5
2018-Jun-12 22:30N 19°17' W 096°02'2 4.0
2018-Jun-12 21:59N 19°18' W 096°03'1 2.2
2018-Jun-12 21:30N 19°19' W 096°04'0 0.6
2018-Jun-12 21:00N 19°19' W 096°04'0 0.5
2018-Jun-12 20:30N 19°19' W 096°04'1 1.5
2018-Jun-12 20:00N 19°19' W 096°04'1 1.8
2018-Jun-12 19:30N 19°19' W 096°03'0 0.5
2018-Jun-12 19:00N 19°19' W 096°03'0 0.5
2018-Jun-12 18:30N 19°19' W 096°03'0 0.5
2018-Jun-12 18:00N 19°19' W 096°03'0 0.9
2018-Jun-12 17:30N 19°19' W 096°04'1 1.1
2018-Jun-12 16:59N 19°19' W 096°04'2 4.3
2018-Jun-12 16:30N 19°19' W 096°01'4 8.3
2018-Jun-12 15:58N 19°24' W 096°01'4 8.8
2018-Jun-12 15:30N 19°28' W 096°00'5 9.6
2018-Jun-12 15:00N 19°32' W 096°01'612.7
2018-Jun-12 14:30N 19°38' W 096°04'612.8
2018-Jun-12 14:00N 19°44' W 096°07'  
2018-Jun-09 11:18N 21°48' W 090°53'3115.6
2018-Jun-09 09:20N 21°41' W 090°21'1115.8
2018-Jun-09 08:38N 21°38' W 090°09'315.8
2018-Jun-09 08:28N 21°37' W 090°07'715.9
2018-Jun-09 08:00N 21°35' W 089°59'815.9
2018-Jun-09 07:30N 21°32' W 089°51'815.5
2018-Jun-09 07:00N 21°29' W 089°43'611.3
2018-Jun-09 06:30N 21°24' W 089°41'3 5.8
2018-Jun-09 05:58N 21°21' W 089°41'0 0.0
2018-Jun-09 05:28N 21°21' W 089°41'0 0.0
2018-Jun-09 04:58N 21°21' W 089°41'0 0.0
2018-Jun-09 04:28N 21°21' W 089°41'0 0.0
2018-Jun-09 03:58N 21°21' W 089°41'0 0.0
2018-Jun-09 03:28N 21°21' W 089°41'0 0.0
2018-Jun-09 02:58N 21°21' W 089°41'0 0.0
2018-Jun-09 02:28N 21°21' W 089°41'0 0.0
2018-Jun-09 01:58N 21°21' W 089°41'0 0.0
2018-Jun-09 01:28N 21°21' W 089°41'0 0.0
2018-Jun-09 00:58N 21°21' W 089°41'0 0.0
2018-Jun-09 00:28N 21°21' W 089°41'0 0.0
2018-Jun-08 23:58N 21°21' W 089°41'0 0.0
2018-Jun-08 23:28N 21°21' W 089°41'0 0.0
2018-Jun-08 22:58N 21°21' W 089°41'0 0.0
2018-Jun-08 22:28N 21°21' W 089°41'0 0.0
2018-Jun-08 21:58N 21°21' W 089°41'0 0.0
2018-Jun-08 21:28N 21°21' W 089°41'0 0.0
2018-Jun-08 20:55N 21°21' W 089°41'0 0.0
2018-Jun-08 20:28N 21°21' W 089°41'0 0.0
2018-Jun-08 19:58N 21°21' W 089°41'0 0.0
2018-Jun-08 19:28N 21°21' W 089°41'0 0.0
2018-Jun-08 18:58N 21°21' W 089°41'0 0.0
2018-Jun-08 18:28N 21°21' W 089°41'0 0.0
2018-Jun-08 17:58N 21°21' W 089°41'0 0.0
2018-Jun-08 17:28N 21°21' W 089°41'0 0.0
2018-Jun-08 16:58N 21°21' W 089°41'0 0.0
2018-Jun-08 16:28N 21°21' W 089°41'0 0.0
2018-Jun-08 15:58N 21°21' W 089°41'0 0.0
2018-Jun-08 15:28N 21°21' W 089°41'0 0.0
2018-Jun-08 14:58N 21°21' W 089°41'0 0.0
2018-Jun-08 14:25N 21°21' W 089°41'0 0.0
2018-Jun-08 13:58N 21°21' W 089°41'0 0.0
2018-Jun-08 13:28N 21°21' W 089°41'0 0.0
2018-Jun-08 12:58N 21°21' W 089°41'0 0.0
2018-Jun-08 12:28N 21°21' W 089°41'0 0.0
2018-Jun-08 11:58N 21°21' W 089°41'0 0.0
2018-Jun-08 11:28N 21°21' W 089°41'0 0.0
2018-Jun-08 10:58N 21°21' W 089°41'0 0.0
2018-Jun-08 10:28N 21°21' W 089°41'0 0.0
2018-Jun-08 09:58N 21°21' W 089°41'0 0.0
2018-Jun-08 09:28N 21°21' W 089°41'0 0.0
2018-Jun-08 08:58N 21°21' W 089°41'0 0.0
2018-Jun-08 08:28N 21°21' W 089°41'0 0.0
2018-Jun-08 07:58N 21°21' W 089°41'0 0.0
2018-Jun-08 07:28N 21°21' W 089°41'0 0.0
2018-Jun-08 06:58N 21°21' W 089°41'0 0.0
2018-Jun-08 06:28N 21°21' W 089°41'0 0.0
2018-Jun-08 05:58N 21°21' W 089°41'0 0.0
2018-Jun-08 05:28N 21°21' W 089°41'0 0.0
2018-Jun-08 04:58N 21°21' W 089°41'0 0.0
2018-Jun-08 04:28N 21°21' W 089°41'0 0.0
2018-Jun-08 03:58N 21°21' W 089°41'0 0.8
2018-Jun-08 03:30N 21°21' W 089°41'510.1
2018-Jun-08 03:00N 21°26' W 089°41'3 5.8
2018-Jun-08 02:30N 21°29' W 089°41'4 8.3
2018-Jun-08 02:00N 21°33' W 089°41'4 8.3
2018-Jun-08 01:31N 21°37' W 089°41'4 8.4
2018-Jun-08 01:00N 21°41' W 089°41'5 9.7
2018-Jun-08 00:30N 21°46' W 089°41'510.5
2018-Jun-08 00:01N 21°51' W 089°40'510.3
2018-Jun-07 23:30N 21°57' W 089°40'510.5
2018-Jun-07 23:00N 22°02' W 089°40'510.6
2018-Jun-07 22:31N 22°07' W 089°40'4 8.6
2018-Jun-07 22:01N 22°10' W 089°38'510.8
2018-Jun-07 21:30N 22°12' W 089°32'510.9
2018-Jun-07 21:01N 22°14' W 089°26'510.8
2018-Jun-07 20:30N 22°15' W 089°21'510.9
2018-Jun-07 20:00N 22°16' W 089°15'510.9
2018-Jun-07 19:30N 22°18' W 089°09'510.8
2018-Jun-07 19:00N 22°19' W 089°04'510.7
2018-Jun-07 18:30N 22°21' W 088°58'3510.7
2018-Jun-07 15:12N 22°30' W 088°21'310.8
2018-Jun-07 14:55N 22°30' W 088°18'511.6
2018-Jun-07 14:30N 22°32' W 088°13'712.3
2018-Jun-07 13:54N 22°34' W 088°05'  

Dump ship's entire track history